Time;durP1;ratioP1;P1;durP2;ratioP2;P2;SDS_P1;SDS_P2;PMS_P1;PMS_P2;Temp;Humidity;BMP_temperature;BMP_pressure;BME280_temperature;BME280_humidity;BME280_pressure;Samples;Min_cycle;Max_cycle;Signal;HPM_P1;HPM_P2
2022/03/27 00:01:30;;;;;;;14.70;7.97;;;7.40;99.90;;;;;;5032668;28;20045;-64
2022/03/27 00:03:55;;;;;;;13.80;7.70;;;7.30;99.90;;;;;;5032784;28;20083;-64
2022/03/27 00:06:21;;;;;;;14.10;7.72;;;7.20;99.90;;;;;;5026286;28;20075;-64
2022/03/27 00:08:46;;;;;;;13.13;7.22;;;7.10;99.90;;;;;;5031169;28;20042;-64
2022/03/27 00:11:24;;;;;;;14.30;8.30;;;7.10;99.90;;;;;;5032846;28;20042;-64
2022/03/27 00:14:14;;;;;;;13.55;8.05;;;7.10;99.90;;;;;;5021246;28;20188;-64
2022/03/27 00:16:39;;;;;;;13.95;8.02;;;7.00;99.90;;;;;;5030098;28;20522;-64
2022/03/27 00:19:06;;;;;;;14.73;9.07;;;6.90;99.90;;;;;;5032754;28;20069;-64
2022/03/27 00:21:32;;;;;;;13.38;7.70;;;6.90;99.90;;;;;;5027119;28;20093;-64
2022/03/27 00:23:58;;;;;;;14.85;8.57;;;6.80;99.90;;;;;;5031632;28;20033;-64
2022/03/27 00:26:23;;;;;;;13.63;8.20;;;6.80;99.90;;;;;;5032169;28;20067;-64
2022/03/27 00:28:49;;;;;;;13.98;7.88;;;6.80;99.90;;;;;;5028012;28;20128;-64
2022/03/27 00:31:16;;;;;;;15.48;8.95;;;6.70;99.90;;;;;;5023885;23;20045;-64
2022/03/27 00:33:43;;;;;;;14.60;8.40;;;6.70;99.90;;;;;;5028135;28;20041;-65
2022/03/27 00:36:10;;;;;;;14.68;8.15;;;6.60;99.90;;;;;;5032144;28;20038;-64
2022/03/27 00:38:37;;;;;;;14.48;7.88;;;6.60;99.90;;;;;;5022296;28;20048;-64
2022/03/27 00:41:04;;;;;;;15.25;8.52;;;6.60;99.90;;;;;;5025347;28;20091;-64
2022/03/27 00:43:30;;;;;;;14.38;7.85;;;6.50;99.90;;;;;;5031899;28;20030;-64
2022/03/27 00:45:56;;;;;;;14.93;8.82;;;6.40;99.90;;;;;;5023452;28;20069;-64
2022/03/27 00:48:22;;;;;;;15.10;8.82;;;6.40;99.90;;;;;;5021106;28;20046;-64
2022/03/27 00:50:49;;;;;;;14.10;8.10;;;6.30;99.90;;;;;;5029698;28;20164;-64
2022/03/27 00:53:15;;;;;;;14.77;8.63;;;6.30;99.90;;;;;;5031549;28;20133;-65
2022/03/27 00:55:41;;;;;;;14.70;8.77;;;6.20;99.90;;;;;;5028778;28;20103;-64
2022/03/27 00:58:08;;;;;;;15.48;8.25;;;6.20;99.90;;;;;;5031438;28;20034;-64
2022/03/27 01:00:45;;;;;;;14.70;8.63;;;6.20;99.90;;;;;;5031948;28;20044;-64
2022/03/27 01:03:23;;;;;;;15.38;8.00;;;6.20;99.90;;;;;;5028663;28;20045;-64
2022/03/27 01:05:49;;;;;;;15.27;8.27;;;6.20;99.90;;;;;;5028296;28;20116;-64
2022/03/27 01:08:16;;;;;;;15.90;8.45;;;6.10;99.90;;;;;;5031657;28;20037;-64
2022/03/27 01:10:43;;;;;;;13.90;7.70;;;6.10;99.90;;;;;;5031760;28;20041;-64
2022/03/27 01:13:19;;;;;;;17.17;8.65;;;6.10;99.90;;;;;;5021523;28;20048;-64
2022/03/27 01:15:57;;;;;;;17.45;9.45;;;6.20;99.90;;;;;;5029145;28;20561;-64
2022/03/27 01:18:23;;;;;;;22.92;10.13;;;6.10;99.90;;;;;;5031140;28;20476;-64
2022/03/27 01:20:49;;;;;;;19.48;9.90;;;6.10;99.90;;;;;;5017517;28;20099;-64
2022/03/27 01:23:15;;;;;;;18.02;9.02;;;6.10;99.90;;;;;;5026600;28;20065;-64
2022/03/27 01:25:43;;;;;;;19.08;10.43;;;6.00;99.90;;;;;;5031272;28;20079;-64
2022/03/27 01:28:14;;;;;;;18.17;9.57;;;6.00;99.90;;;;;;5021949;28;20048;-64
2022/03/27 01:30:40;;;;;;;22.45;9.88;;;6.00;99.90;;;;;;5030569;28;20065;-64
2022/03/27 01:33:09;;;;;;;22.02;9.93;;;6.00;99.90;;;;;;5030516;28;20049;-64
2022/03/27 01:35:35;;;;;;;22.90;11.25;;;6.00;99.90;;;;;;5031354;28;20125;-64
2022/03/27 01:38:02;;;;;;;19.45;7.72;;;5.90;99.90;;;;;;5016373;28;20084;-64
2022/03/27 01:40:28;;;;;;;25.40;12.57;;;5.90;99.90;;;;;;5026174;28;20427;-64
2022/03/27 01:42:55;;;;;;;27.40;12.00;;;5.90;99.90;;;;;;5030641;28;20030;-65
2022/03/27 01:45:22;;;;;;;26.35;12.02;;;5.90;99.90;;;;;;5022316;28;20073;-64
2022/03/27 01:47:47;;;;;;;26.10;12.80;;;5.90;99.90;;;;;;5025629;28;20045;-64
2022/03/27 01:50:13;;;;;;;25.33;11.50;;;5.80;99.90;;;;;;5031052;28;20052;-64
2022/03/27 01:52:38;;;;;;;30.35;11.90;;;5.80;99.90;;;;;;5021472;28;20050;-64
2022/03/27 01:55:10;;;;;;;32.40;14.35;;;5.70;99.90;;;;;;5022577;28;20404;-64
2022/03/27 01:57:36;;;;;;;27.88;13.10;;;5.70;99.90;;;;;;5030447;28;20112;-65
2022/03/27 02:00:04;;;;;;;37.47;14.15;;;5.70;99.90;;;;;;5028967;28;20445;-64
2022/03/27 02:02:29;;;;;;;34.97;13.93;;;5.60;99.90;;;;;;5021017;28;20048;-64
2022/03/27 02:04:55;;;;;;;32.30;13.20;;;5.60;99.90;;;;;;5028887;28;20049;-64
2022/03/27 02:07:24;;;;;;;31.50;13.73;;;5.70;99.90;;;;;;5030664;28;20116;-64
2022/03/27 02:09:50;;;;;;;31.33;13.18;;;5.70;99.90;;;;;;5021114;28;20037;-64
2022/03/27 02:12:16;;;;;;;26.40;11.95;;;5.70;99.90;;;;;;5026176;28;20036;-64
2022/03/27 02:14:42;;;;;;;30.52;13.15;;;5.60;99.90;;;;;;5029807;28;20057;-64
2022/03/27 02:17:08;;;;;;;32.20;14.25;;;5.50;99.90;;;;;;5030721;28;20037;-64
2022/03/27 02:19:35;;;;;;;34.92;14.68;;;5.50;99.90;;;;;;5025277;28;20038;-64
2022/03/27 02:22:01;;;;;;;33.38;14.25;;;5.40;99.90;;;;;;5017109;28;20244;-64
2022/03/27 02:24:26;;;;;;;34.83;14.60;;;5.40;99.90;;;;;;5030057;28;20495;-64
2022/03/27 02:26:52;;;;;;;34.47;13.85;;;5.30;99.90;;;;;;5018323;28;20133;-64
2022/03/27 02:29:18;;;;;;;34.47;14.15;;;5.30;99.90;;;;;;5017242;28;20096;-64
2022/03/27 02:31:44;;;;;;;35.92;14.85;;;5.20;99.90;;;;;;5030168;28;20144;-64
2022/03/27 02:34:10;;;;;;;36.00;14.43;;;5.20;99.90;;;;;;5024924;28;20048;-64
2022/03/27 02:36:36;;;;;;;42.00;15.95;;;5.20;99.90;;;;;;5022971;28;20046;-64
2022/03/27 02:39:03;;;;;;;40.40;15.65;;;5.20;99.90;;;;;;5030038;28;20487;-64
2022/03/27 02:41:28;;;;;;;35.80;14.63;;;5.20;99.90;;;;;;5030363;28;20077;-64
2022/03/27 02:43:54;;;;;;;38.05;14.25;;;5.20;99.90;;;;;;5015194;28;20072;-64
2022/03/27 02:46:20;;;;;;;35.33;14.55;;;5.20;99.90;;;;;;5028772;28;20109;-64
2022/03/27 02:48:45;;;;;;;34.67;13.82;;;5.20;99.90;;;;;;5030337;28;20108;-64
2022/03/27 02:51:11;;;;;;;34.00;14.55;;;5.20;99.90;;;;;;5028060;28;20120;-64
2022/03/27 02:53:36;;;;;;;33.67;13.00;;;5.20;99.90;;;;;;5022700;28;20041;-64
2022/03/27 02:56:04;;;;;;;29.92;11.95;;;5.10;99.90;;;;;;5030202;28;20037;-64
2022/03/27 02:58:30;;;;;;;24.98;11.55;;;5.10;99.90;;;;;;5032724;28;20041;-64
2022/03/27 03:00:56;;;;;;;23.67;9.77;;;5.00;99.90;;;;;;5023096;28;20041;-64
2022/03/27 03:03:22;;;;;;;17.30;8.02;;;4.80;99.90;;;;;;5033408;28;20041;-64
2022/03/27 03:05:48;;;;;;;19.63;8.85;;;4.80;99.90;;;;;;5034072;28;20047;-64
2022/03/27 03:08:17;;;;;;;18.77;7.30;;;4.80;99.90;;;;;;5028028;28;20088;-64
2022/03/27 03:10:44;;;;;;;18.55;8.38;;;4.90;99.90;;;;;;5020997;28;20052;-64
2022/03/27 03:13:10;;;;;;;15.77;7.30;;;5.00;99.90;;;;;;5033095;28;20067;-64
2022/03/27 03:15:42;;;;;;;19.73;9.07;;;5.00;99.90;;;;;;5034064;28;20048;-64
2022/03/27 03:18:10;;;;;;;18.17;8.13;;;5.10;99.90;;;;;;5019972;28;20034;-64
2022/03/27 03:20:36;;;;;;;21.35;9.38;;;5.10;99.90;;;;;;5029803;28;20411;-64
2022/03/27 03:23:01;;;;;;;18.40;7.80;;;5.10;99.90;;;;;;5013708;28;20034;-64
2022/03/27 03:25:27;;;;;;;20.48;10.02;;;5.10;99.90;;;;;;5019710;28;20048;-64
2022/03/27 03:27:53;;;;;;;23.10;9.45;;;5.10;99.90;;;;;;5025151;28;20056;-64
2022/03/27 03:30:19;;;;;;;21.58;9.73;;;5.10;99.90;;;;;;5033509;28;20064;-64
2022/03/27 03:32:44;;;;;;;26.02;9.95;;;5.10;99.90;;;;;;5026059;28;20555;-64
2022/03/27 03:35:10;;;;;;;22.58;10.38;;;5.10;99.90;;;;;;5030853;28;20112;-64
2022/03/27 03:37:36;;;;;;;20.67;9.95;;;5.00;99.90;;;;;;5033148;28;20045;-64
2022/03/27 03:40:06;;;;;;;23.70;9.63;;;5.10;99.90;;;;;;5032979;28;20045;-64
2022/03/27 03:42:36;;;;;;;24.15;10.45;;;5.00;99.90;;;;;;5026721;28;20045;-64
2022/03/27 03:45:04;;;;;;;20.65;9.32;;;5.00;99.90;;;;;;5024671;28;20033;-64
2022/03/27 03:47:30;;;;;;;19.27;8.98;;;5.00;99.90;;;;;;5023839;28;20491;-64
2022/03/27 03:49:56;;;;;;;20.50;9.82;;;5.00;99.90;;;;;;5016224;28;20083;-64
2022/03/27 03:52:21;;;;;;;20.55;9.27;;;5.00;99.90;;;;;;5023904;28;20140;-65
2022/03/27 03:54:47;;;;;;;17.85;9.10;;;4.90;99.90;;;;;;5031424;28;20602;-64
2022/03/27 03:57:13;;;;;;;19.65;8.95;;;4.90;99.90;;;;;;5033009;28;20088;-64
2022/03/27 03:59:39;;;;;;;20.25;8.85;;;4.80;99.90;;;;;;5024240;28;20029;-64
2022/03/27 04:02:07;;;;;;;16.23;8.57;;;4.80;99.90;;;;;;5032329;28;20059;-64
2022/03/27 04:04:34;;;;;;;17.55;8.27;;;4.70;99.90;;;;;;5032595;28;20091;-64
2022/03/27 04:07:00;;;;;;;16.95;8.55;;;4.70;99.90;;;;;;5021516;28;20384;-64
2022/03/27 04:09:27;;;;;;;20.45;9.43;;;4.70;99.90;;;;;;5031115;28;20068;-64
2022/03/27 04:11:53;;;;;;;17.52;8.63;;;4.70;99.90;;;;;;5032339;28;20038;-64
2022/03/27 04:14:19;;;;;;;22.17;9.70;;;4.60;99.90;;;;;;5032449;28;20087;-64
2022/03/27 04:16:44;;;;;;;21.50;10.80;;;4.60;99.90;;;;;;5026998;28;20033;-64
2022/03/27 04:19:11;;;;;;;21.85;9.95;;;4.60;99.90;;;;;;5032035;28;20044;-64
2022/03/27 04:21:37;;;;;;;21.65;10.40;;;4.50;99.90;;;;;;5032041;28;20059;-64
2022/03/27 04:24:03;;;;;;;21.27;10.18;;;4.50;99.90;;;;;;5022099;28;20025;-64
2022/03/27 04:26:28;;;;;;;27.70;10.73;;;4.40;99.90;;;;;;5021824;28;20045;-64
2022/03/27 04:28:54;;;;;;;26.27;11.30;;;4.40;99.90;;;;;;5030695;28;20037;-64
2022/03/27 04:31:19;;;;;;;26.38;10.57;;;4.40;99.90;;;;;;5031160;28;20113;-64
2022/03/27 04:33:45;;;;;;;23.85;9.95;;;4.30;99.90;;;;;;5027159;28;20041;-64
2022/03/27 04:36:11;;;;;;;20.25;9.88;;;4.30;99.90;;;;;;5019483;28;20095;-64
2022/03/27 04:38:37;;;;;;;20.75;9.65;;;4.20;99.90;;;;;;5027700;28;20037;-64
2022/03/27 04:41:03;;;;;;;21.90;8.95;;;4.20;99.90;;;;;;5026614;28;20504;-64
2022/03/27 04:43:29;;;;;;;20.35;8.63;;;4.20;99.90;;;;;;5026849;28;20041;-64
2022/03/27 04:45:55;;;;;;;21.52;8.98;;;4.20;99.90;;;;;;5031583;28;20041;-64
2022/03/27 04:48:20;;;;;;;18.67;8.65;;;4.20;99.90;;;;;;5028581;28;20052;-64
2022/03/27 04:50:46;;;;;;;18.10;7.95;;;4.20;99.90;;;;;;5031144;28;20057;-64
2022/03/27 04:53:12;;;;;;;27.08;8.23;;;4.20;99.90;;;;;;5031601;28;20045;-64
2022/03/27 04:55:38;;;;;;;22.05;8.65;;;4.20;99.90;;;;;;5032037;28;20040;-64
2022/03/27 04:58:08;;;;;;;25.08;8.82;;;4.20;99.90;;;;;;5014681;28;20514;-64
2022/03/27 05:00:33;;;;;;;22.23;9.38;;;4.20;99.90;;;;;;5026356;28;20099;-64
2022/03/27 05:02:59;;;;;;;31.73;10.90;;;4.10;99.90;;;;;;5031075;28;20061;-64
2022/03/27 05:05:24;;;;;;;22.35;9.05;;;4.10;99.90;;;;;;5026965;28;20480;-64
2022/03/27 05:07:50;;;;;;;27.58;9.05;;;4.20;99.90;;;;;;5026446;28;20041;-64
2022/03/27 05:10:16;;;;;;;32.13;10.13;;;4.20;99.90;;;;;;5024281;28;20037;-64
2022/03/27 05:12:42;;;;;;;30.70;9.07;;;4.20;99.90;;;;;;5026080;28;20310;-64
2022/03/27 05:15:09;;;;;;;29.63;9.55;;;4.20;99.90;;;;;;5022523;28;20041;-64
2022/03/27 05:17:45;;;;;;;28.77;9.35;;;4.20;99.90;;;;;;5031174;28;20030;-64
2022/03/27 05:20:11;;;;;;;29.02;9.57;;;4.30;99.90;;;;;;5020129;28;20055;-64
2022/03/27 05:22:36;;;;;;;26.25;9.23;;;4.30;99.90;;;;;;5030769;28;20037;-64
2022/03/27 05:25:02;;;;;;;33.20;10.48;;;4.30;99.90;;;;;;5031425;28;20064;-64
2022/03/27 05:27:27;;;;;;;30.92;10.18;;;4.30;99.90;;;;;;5031420;28;20041;-64
2022/03/27 05:29:53;;;;;;;30.60;10.73;;;4.30;99.90;;;;;;5020655;28;20040;-64
2022/03/27 05:32:18;;;;;;;27.27;9.80;;;4.30;99.90;;;;;;5022262;28;20045;-64
2022/03/27 05:34:44;;;;;;;23.77;8.23;;;4.40;99.90;;;;;;5030367;28;20045;-64
2022/03/27 05:37:09;;;;;;;22.15;8.13;;;4.40;99.90;;;;;;5031389;28;20033;-64
2022/03/27 05:39:35;;;;;;;26.35;9.02;;;4.50;99.90;;;;;;5020528;28;20046;-64
2022/03/27 05:42:01;;;;;;;32.15;9.07;;;4.50;99.90;;;;;;5023187;28;20033;-64
2022/03/27 05:44:26;;;;;;;29.00;8.73;;;4.60;99.90;;;;;;5030685;28;20095;-64
2022/03/27 05:46:52;;;;;;;27.20;7.72;;;4.70;99.90;;;;;;5025473;28;20044;-64
2022/03/27 05:49:17;;;;;;;25.65;8.88;;;4.80;99.90;;;;;;5030167;28;20124;-64
2022/03/27 05:51:43;;;;;;;30.60;9.15;;;4.80;99.90;;;;;;5030759;28;20595;-64
2022/03/27 05:54:08;;;;;;;23.30;9.82;;;4.90;99.90;;;;;;5030851;28;20045;-64
2022/03/27 05:56:34;;;;;;;27.45;8.90;;;4.90;99.90;;;;;;5027066;28;20045;-64
2022/03/27 05:58:59;;;;;;;21.85;8.15;;;5.00;99.90;;;;;;5030143;28;20066;-64
2022/03/27 06:01:26;;;;;;;28.48;9.20;;;5.00;99.90;;;;;;5030539;28;20041;-64
2022/03/27 06:03:52;;;;;;;30.98;9.10;;;5.10;99.90;;;;;;5025337;28;20041;-64
2022/03/27 06:06:17;;;;;;;29.27;9.70;;;5.20;99.90;;;;;;5019605;28;20496;-64
2022/03/27 06:08:43;;;;;;;27.90;8.80;;;5.20;99.90;;;;;;5030353;28;20048;-64
2022/03/27 06:11:09;;;;;;;26.27;8.77;;;5.30;99.90;;;;;;5030733;28;20049;-64
2022/03/27 06:13:34;;;;;;;29.25;9.90;;;5.40;99.90;;;;;;5023053;28;20034;-64
2022/03/27 06:16:00;;;;;;;21.90;8.55;;;5.50;99.90;;;;;;5026645;28;20483;-64
2022/03/27 06:18:25;;;;;;;29.92;9.23;;;5.50;99.90;;;;;;5030202;28;20038;-64
2022/03/27 06:20:51;;;;;;;33.08;8.90;;;5.70;99.90;;;;;;5023281;28;20047;-64
2022/03/27 06:23:16;;;;;;;27.73;9.38;;;5.70;99.90;;;;;;5029774;28;20116;-64
2022/03/27 06:25:42;;;;;;;27.67;8.13;;;5.90;99.90;;;;;;5030335;28;20041;-64
2022/03/27 06:28:07;;;;;;;27.70;7.85;;;6.00;99.90;;;;;;5027868;28;20433;-65
2022/03/27 06:30:34;;;;;;;28.50;8.50;;;6.10;99.90;;;;;;5024205;28;20630;-64
2022/03/27 06:33:00;;;;;;;19.63;5.78;;;6.10;99.90;;;;;;5033439;28;20030;-64
2022/03/27 06:35:26;;;;;;;18.58;6.82;;;6.20;99.90;;;;;;5034742;28;20043;-64
2022/03/27 06:37:53;;;;;;;25.85;8.68;;;6.20;99.90;;;;;;5029558;28;20026;-64
2022/03/27 06:40:22;;;;;;;32.05;8.82;;;6.20;99.90;;;;;;5034295;28;20038;-64
2022/03/27 06:42:48;;;;;;;33.55;8.60;;;6.30;99.90;;;;;;5033298;28;20045;-64
2022/03/27 06:45:15;;;;;;;31.35;8.18;;;6.30;99.90;;;;;;5026476;28;20515;-65
2022/03/27 06:47:43;;;;;;;32.25;9.07;;;6.50;99.90;;;;;;5025232;28;20041;-65
2022/03/27 06:50:09;;;;;;;36.03;9.23;;;6.50;99.90;;;;;;5031271;28;20049;-65
2022/03/27 06:52:35;;;;;;;31.15;8.38;;;6.60;99.90;;;;;;5023797;28;20091;-65
2022/03/27 06:55:03;;;;;;;30.48;7.55;;;6.60;99.90;;;;;;5023005;28;20113;-65
2022/03/27 06:57:29;;;;;;;27.30;8.55;;;6.70;99.90;;;;;;5030877;28;20045;-64
2022/03/27 07:05:23;;;;;;;31.23;8.45;;;7.00;99.90;;;;;;5026698;28;20049;-65
2022/03/27 07:07:49;;;;;;;29.42;8.15;;;7.00;99.90;;;;;;5030927;28;20037;-66
2022/03/27 07:10:16;;;;;;;29.38;7.63;;;7.00;99.90;;;;;;5027183;28;20041;-64
2022/03/27 07:12:42;;;;;;;37.50;8.15;;;7.00;99.90;;;;;;5025530;28;20045;-63
2022/03/27 07:15:10;;;;;;;30.48;8.57;;;7.10;99.90;;;;;;5023553;28;20053;-63
2022/03/27 07:17:49;;;;;;;33.92;8.30;;;7.10;99.90;;;;;;5032177;28;20045;-63
2022/03/27 07:20:20;;;;;;;31.48;7.82;;;7.20;99.90;;;;;;5032718;28;20048;-64
2022/03/27 07:22:46;;;;;;;41.50;8.10;;;7.20;99.90;;;;;;5022855;28;20030;-63
2022/03/27 07:25:12;;;;;;;31.20;7.28;;;7.20;99.90;;;;;;5029451;28;20390;-63
2022/03/27 07:27:39;;;;;;;38.80;8.23;;;7.30;99.90;;;;;;5024858;28;20049;-64
2022/03/27 07:30:06;;;;;;;35.13;8.43;;;7.20;99.90;;;;;;5026737;28;20076;-64
2022/03/27 07:32:32;;;;;;;33.85;8.52;;;7.30;99.90;;;;;;5032695;28;20045;-64
2022/03/27 07:34:58;;;;;;;33.30;7.88;;;7.40;99.90;;;;;;5024276;28;20087;-64
2022/03/27 07:37:24;;;;;;;40.83;9.02;;;7.50;99.90;;;;;;5022201;28;20033;-64
2022/03/27 07:39:50;;;;;;;37.92;7.97;;;7.60;99.90;;;;;;5032735;28;20080;-63
2022/03/27 07:42:15;;;;;;;38.05;7.90;;;7.70;99.90;;;;;;5031335;28;20069;-66
2022/03/27 07:44:41;;;;;;;37.38;9.95;;;7.80;99.90;;;;;;5020556;28;20048;-64
2022/03/27 07:47:07;;;;;;;36.47;9.07;;;7.80;99.90;;;;;;5032685;28;20060;-64
2022/03/27 07:49:33;;;;;;;45.72;9.55;;;7.90;99.90;;;;;;5033170;28;20049;-64
2022/03/27 07:52:00;;;;;;;33.75;8.63;;;7.90;99.90;;;;;;5014605;28;20045;-64
2022/03/27 07:54:26;;;;;;;32.15;7.85;;;8.00;99.90;;;;;;5022155;28;20049;-64
2022/03/27 07:56:52;;;;;;;33.95;8.00;;;8.20;99.90;;;;;;5032684;28;20068;-66
2022/03/27 07:59:18;;;;;;;39.38;8.05;;;8.30;99.90;;;;;;5023438;28;20485;-64
2022/03/27 08:01:43;;;;;;;37.90;8.07;;;8.40;99.90;;;;;;5021975;28;20041;-64
2022/03/27 08:04:09;;;;;;;37.42;9.38;;;8.50;99.90;;;;;;5032240;28;20103;-64
2022/03/27 08:06:36;;;;;;;29.88;7.22;;;8.50;99.90;;;;;;5032916;28;20037;-65
2022/03/27 08:09:06;;;;;;;36.88;8.15;;;8.50;99.90;;;;;;5026061;28;20037;-64
2022/03/27 08:11:32;;;;;;;34.13;7.97;;;8.50;99.90;;;;;;5024558;28;20180;-64
2022/03/27 08:13:58;;;;;;;26.17;7.20;;;8.50;99.90;;;;;;5027611;28;20522;-64
2022/03/27 08:16:25;;;;;;;30.08;7.93;;;8.40;99.90;;;;;;5025578;28;20069;-64
2022/03/27 08:18:51;;;;;;;38.10;9.32;;;8.30;99.90;;;;;;5030394;28;20048;-64
2022/03/27 08:21:17;;;;;;;39.78;9.55;;;8.30;99.90;;;;;;5031871;28;20513;-64
2022/03/27 08:23:42;;;;;;;32.15;9.00;;;8.30;99.90;;;;;;5029020;28;20065;-64
2022/03/27 08:28:52;;;;;;;39.28;9.57;;;8.20;99.90;;;;;;5032358;28;20041;-64
2022/03/27 08:31:18;;;;;;;41.78;9.15;;;8.20;99.90;;;;;;5032271;28;20507;-64
2022/03/27 08:33:44;;;;;;;35.90;10.55;;;8.20;99.90;;;;;;5025090;28;20052;-64
2022/03/27 08:36:10;;;;;;;36.72;9.82;;;8.30;99.90;;;;;;5031127;28;20120;-64
2022/03/27 08:38:35;;;;;;;41.42;8.90;;;8.30;99.90;;;;;;5032065;28;20723;-64
2022/03/27 08:41:02;;;;;;;35.15;8.85;;;8.30;99.90;;;;;;5027537;28;20041;-64
2022/03/27 08:43:32;;;;;;;33.47;9.90;;;8.30;99.90;;;;;;5017488;28;20524;-64
2022/03/27 08:45:58;;;;;;;36.58;8.50;;;8.30;99.90;;;;;;5030533;28;20112;-64
2022/03/27 08:48:24;;;;;;;36.97;7.72;;;8.30;99.90;;;;;;5030670;28;20113;-64
2022/03/27 08:51:28;;;;;;;31.92;7.63;;;8.30;99.90;;;;;;5024412;28;20044;-64
2022/03/27 08:54:05;;;;;;;33.25;8.55;;;8.30;99.90;;;;;;5023836;28;20128;-64
2022/03/27 08:56:32;;;;;;;41.03;9.65;;;8.40;99.90;;;;;;5031911;28;20500;-64
2022/03/27 08:59:03;;;;;;;27.98;8.05;;;8.40;99.90;;;;;;5024456;28;20064;-64
2022/03/27 09:01:29;;;;;;;40.30;10.13;;;8.50;99.90;;;;;;5023733;28;20033;-64
2022/03/27 09:03:55;;;;;;;37.20;9.18;;;8.50;99.90;;;;;;5031308;28;20443;-64
2022/03/27 09:06:22;;;;;;;39.10;10.32;;;8.60;99.90;;;;;;5024690;28;20057;-64
2022/03/27 09:08:49;;;;;;;46.28;11.10;;;8.80;99.90;;;;;;5022767;28;20500;-64
2022/03/27 09:11:16;;;;;;;32.95;9.75;;;8.80;99.90;;;;;;5031069;28;20041;-64
2022/03/27 09:13:47;;;;;;;34.95;9.40;;;8.90;99.90;;;;;;5027406;28;20179;-64
2022/03/27 09:16:13;;;;;;;38.90;10.30;;;8.90;99.90;;;;;;5029768;28;20038;-64
2022/03/27 09:18:48;;;;;;;40.05;10.77;;;9.00;99.90;;;;;;5029921;28;20068;-64
2022/03/27 09:21:15;;;;;;;31.45;9.00;;;9.00;99.90;;;;;;5027213;28;21557;-64
2022/03/27 09:23:41;;;;;;;40.55;10.75;;;9.00;99.90;;;;;;5024788;28;20747;-64
2022/03/27 09:26:11;;;;;;;42.05;11.07;;;9.10;99.90;;;;;;5030373;28;20116;-64
2022/03/27 09:28:38;;;;;;;41.38;10.32;;;9.10;99.90;;;;;;5031114;28;20112;-64
2022/03/27 09:31:06;;;;;;;39.58;10.05;;;9.20;99.90;;;;;;5031042;28;20056;-64
2022/03/27 09:33:35;;;;;;;37.17;11.90;;;9.20;99.90;;;;;;5017787;28;20107;-64
2022/03/27 09:36:09;;;;;;;35.20;12.55;;;9.30;99.90;;;;;;5029471;28;20463;-64
2022/03/27 09:38:36;;;;;;;46.83;12.65;;;9.30;99.90;;;;;;5029679;28;20045;-64
2022/03/27 09:41:01;;;;;;;50.88;13.68;;;9.30;99.90;;;;;;5025495;28;20503;-64
2022/03/27 09:43:27;;;;;;;41.72;13.70;;;9.30;99.90;;;;;;5021533;28;20038;-64
2022/03/27 09:46:02;;;;;;;34.47;11.93;;;9.40;99.90;;;;;;5018660;28;20042;-64
2022/03/27 09:48:28;;;;;;;37.17;12.90;;;9.50;99.90;;;;;;5021337;28;20515;-64
2022/03/27 09:50:57;;;;;;;34.83;12.07;;;9.70;99.90;;;;;;5028891;28;20072;-65
2022/03/27 09:53:29;;;;;;;41.30;11.30;;;9.70;99.90;;;;;;5030546;28;20111;-64
2022/03/27 09:55:58;;;;;;;;;;;9.70;99.90;;;;;;5027106;28;20049;-64
2022/03/27 09:58:33;;;;;;;41.55;11.15;;;9.80;99.90;;;;;;5027875;28;19925;-64
2022/03/27 10:01:13;;;;;;;32.45;11.05;;;9.90;99.90;;;;;;5030015;28;20036;-64
2022/03/27 10:03:59;;;;;;;34.25;10.98;;;10.00;99.90;;;;;;5030643;28;20091;-64
2022/03/27 10:06:33;;;;;;;33.75;10.32;;;10.00;99.90;;;;;;5026498;28;20042;-64
2022/03/27 10:09:07;;;;;;;44.17;11.20;;;10.10;99.90;;;;;;5022136;28;20555;-64
2022/03/27 10:11:34;;;;;;;34.15;10.85;;;10.10;99.90;;;;;;5030409;28;20046;-65
2022/03/27 10:14:01;;;;;;;35.65;11.00;;;10.20;99.90;;;;;;5021377;28;20121;-64
2022/03/27 10:16:33;;;;;;;36.10;11.40;;;10.20;99.90;;;;;;5029855;28;20049;-65
2022/03/27 10:19:26;;;;;;;39.05;11.15;;;10.20;99.90;;;;;;5029137;28;20049;-64
2022/03/27 10:21:54;;;;;;;38.80;10.48;;;10.40;99.90;;;;;;5026067;28;20037;-64
2022/03/27 10:24:21;;;;;;;40.13;11.00;;;10.50;99.90;;;;;;5029541;28;20042;-64
2022/03/27 10:26:46;;;;;;;36.80;10.25;;;10.50;99.90;;;;;;5030645;28;20048;-65
2022/03/27 10:29:14;;;;;;;36.47;10.55;;;10.50;99.90;;;;;;5025523;28;20037;-63
2022/03/27 10:31:39;;;;;;;40.75;11.23;;;10.60;99.90;;;;;;5028690;28;20037;-64
2022/03/27 10:34:09;;;;;;;31.80;9.75;;;10.60;99.90;;;;;;5029883;28;20040;-64
2022/03/27 10:37:14;;;;;;;37.95;10.48;;;10.70;99.90;;;;;;5030427;28;20041;-68
2022/03/27 10:39:52;;;;;;;33.03;10.23;;;10.80;99.90;;;;;;5020053;28;20068;-64
2022/03/27 10:42:34;;;;;;;37.85;10.65;;;10.80;99.90;;;;;;5030148;28;20111;-64
2022/03/27 10:45:08;;;;;;;31.90;10.43;;;11.00;99.90;;;;;;5030123;28;20103;-65
2022/03/27 10:47:34;;;;;;;37.25;11.30;;;11.10;99.90;;;;;;5015890;28;20542;-65
2022/03/27 10:50:05;;;;;;;36.58;10.32;;;11.20;99.90;;;;;;5029856;28;20112;-64
2022/03/27 10:52:33;;;;;;;30.58;10.68;;;11.30;99.90;;;;;;5030001;28;20034;-64
2022/03/27 10:55:02;;;;;;;33.70;10.27;;;11.40;99.90;;;;;;5027262;28;20044;-65
2022/03/27 10:57:34;;;;;;;33.10;9.80;;;11.50;99.90;;;;;;5018136;28;20037;-64
2022/03/27 11:00:01;;;;;;;35.72;11.25;;;11.60;99.90;;;;;;5029617;28;20041;-64
2022/03/27 11:02:50;;;;;;;34.30;10.85;;;11.60;99.90;;;;;;5027547;28;20048;-65
2022/03/27 11:05:36;;;;;;;37.63;10.15;;;11.60;99.90;;;;;;5023430;28;20048;-64
2022/03/27 11:08:17;;;;;;;29.77;9.30;;;11.70;99.90;;;;;;5020554;28;20407;-65
2022/03/27 11:10:49;;;;;;;39.08;9.20;;;11.80;99.90;;;;;;5024696;28;20124;-65
2022/03/27 11:13:33;;;;;;;34.10;9.57;;;12.00;99.90;;;;;;5029266;28;20033;-65
2022/03/27 11:16:12;;;;;;;31.92;8.88;;;12.00;99.90;;;;;;5028768;28;20049;-65
2022/03/27 11:18:51;;;;;;;28.73;9.30;;;12.20;99.90;;;;;;5029018;28;20100;-64
2022/03/27 11:21:28;;;;;;;31.55;8.70;;;12.30;99.90;;;;;;5026541;28;20037;-64
2022/03/27 11:23:55;;;;;;;30.88;9.63;;;12.40;99.90;;;;;;5032228;28;20034;-65
2022/03/27 11:26:20;;;;;;;24.42;8.48;;;12.40;99.90;;;;;;5033768;28;20041;-64
2022/03/27 11:28:53;;;;;;;32.72;10.18;;;12.30;99.90;;;;;;5033368;28;20038;-65
2022/03/27 11:31:31;;;;;;;32.90;8.57;;;12.30;99.90;;;;;;5020125;28;20088;-65
2022/03/27 11:34:12;;;;;;;28.73;7.70;;;12.50;99.90;;;;;;5032395;28;20041;-65
2022/03/27 11:36:39;;;;;;;26.48;7.63;;;12.60;99.90;;;;;;5027393;28;20059;-64
2022/03/27 11:39:25;;;;;;;28.02;7.93;;;12.80;99.90;;;;;;5032526;28;20030;-64
2022/03/27 11:41:51;;;;;;;31.70;8.10;;;12.90;99.90;;;;;;5032500;28;20045;-65
2022/03/27 11:47:23;;;;;;;27.38;7.13;;;13.10;99.90;;;;;;5025758;28;20041;-64
2022/03/27 11:49:50;;;;;;;28.05;7.47;;;13.10;99.90;;;;;;5032827;28;20867;-64
2022/03/27 11:52:21;;;;;;;32.08;7.15;;;13.10;99.90;;;;;;5033296;28;20040;-65
2022/03/27 11:54:47;;;;;;;22.13;6.75;;;13.30;99.90;;;;;;5023118;28;20057;-65
2022/03/27 11:57:13;;;;;;;24.05;6.57;;;13.40;99.90;;;;;;5032906;28;20037;-65
2022/03/27 11:59:50;;;;;;;24.60;6.68;;;13.50;99.90;;;;;;5032772;28;20066;-64
2022/03/27 12:02:17;;;;;;;24.17;6.80;;;13.50;99.90;;;;;;5027273;28;20124;-65
2022/03/27 12:04:54;;;;;;;24.17;6.88;;;13.60;99.90;;;;;;5028288;28;20038;-65
2022/03/27 12:07:25;;;;;;;29.15;6.70;;;13.70;99.90;;;;;;5029880;28;20124;-65
2022/03/27 12:09:58;;;;;;;22.23;6.57;;;13.80;99.90;;;;;;5011240;28;20065;-65
2022/03/27 12:12:26;;;;;;;27.80;6.72;;;13.80;99.90;;;;;;5021402;28;20041;-64
2022/03/27 12:15:04;;;;;;;31.20;6.57;;;13.90;99.90;;;;;;5025409;28;20106;-64
2022/03/27 12:17:32;;;;;;;26.55;6.97;;;13.90;99.90;;;;;;5023464;28;20069;-64
2022/03/27 12:20:05;;;;;;;29.70;7.05;;;14.00;99.90;;;;;;5029712;28;20076;-64
2022/03/27 12:22:57;;;;;;;21.98;6.53;;;14.10;99.90;;;;;;5021758;28;20132;-64
2022/03/27 12:25:26;;;;;;;22.95;6.25;;;14.20;99.90;;;;;;5012472;28;20046;-65
2022/03/27 12:30:47;;;;;;;28.33;6.40;;;14.40;99.90;;;;;;5028520;28;20077;-64
2022/03/27 12:33:13;;;;;;;24.55;6.22;;;14.50;99.90;;;;;;5029525;28;20033;-64
2022/03/27 12:35:38;;;;;;;24.48;6.68;;;14.60;99.90;;;;;;5021122;28;20512;-64
2022/03/27 12:38:04;;;;;;;24.98;6.40;;;14.70;99.90;;;;;;5028896;28;20044;-65
2022/03/27 12:40:42;;;;;;;26.65;6.15;;;14.70;99.90;;;;;;5029227;28;20041;-64
2022/03/27 12:43:13;;;;;;;28.05;6.28;;;14.80;99.90;;;;;;5018325;28;20036;-64
2022/03/27 12:45:44;;;;;;;26.48;5.70;;;14.90;99.90;;;;;;5026797;28;20049;-64
2022/03/27 12:48:27;;;;;;;25.35;5.65;;;14.90;99.90;;;;;;5028946;28;20115;-64
2022/03/27 12:50:58;;;;;;;18.42;4.82;;;14.90;99.90;;;;;;5025617;28;20102;-65
2022/03/27 12:53:23;;;;;;;20.13;5.50;;;15.10;98.10;;;;;;5020655;28;20045;-64
2022/03/27 12:56:01;;;;;;;26.38;6.15;;;15.10;99.90;;;;;;5024810;28;20052;-64
2022/03/27 12:58:36;;;;;;;19.52;5.10;;;15.10;98.80;;;;;;5028309;28;20037;-64
2022/03/27 13:01:07;;;;;;;23.13;5.18;;;15.20;97.80;;;;;;5020450;28;20075;-65